sensor_id;sensor_type;location;lat;lon;timestamp;P1;durP1;ratioP1;P2;durP2;ratioP2
22131;SDS011;11232;51.748;19.390;2022-11-10T00:02:01;74.23;;;30.50;;
22131;SDS011;11232;51.748;19.390;2022-11-10T00:04:27;71.47;;;30.80;;
22131;SDS011;11232;51.748;19.390;2022-11-10T00:06:53;73.90;;;31.43;;
22131;SDS011;11232;51.748;19.390;2022-11-10T00:09:18;74.33;;;30.47;;
22131;SDS011;11232;51.748;19.390;2022-11-10T00:11:44;68.83;;;30.10;;
22131;SDS011;11232;51.748;19.390;2022-11-10T00:14:10;74.53;;;31.20;;
22131;SDS011;11232;51.748;19.390;2022-11-10T00:16:54;65.10;;;29.90;;
22131;SDS011;11232;51.748;19.390;2022-11-10T00:19:29;68.30;;;30.33;;
22131;SDS011;11232;51.748;19.390;2022-11-10T00:21:55;69.07;;;30.57;;
22131;SDS011;11232;51.748;19.390;2022-11-10T00:24:22;69.87;;;30.77;;
22131;SDS011;11232;51.748;19.390;2022-11-10T00:26:48;71.23;;;28.67;;
22131;SDS011;11232;51.748;19.390;2022-11-10T00:29:14;67.80;;;29.30;;
22131;SDS011;11232;51.748;19.390;2022-11-10T00:31:40;77.87;;;30.70;;
22131;SDS011;11232;51.748;19.390;2022-11-10T00:34:06;65.60;;;29.50;;
22131;SDS011;11232;51.748;19.390;2022-11-10T00:36:34;62.80;;;28.53;;
22131;SDS011;11232;51.748;19.390;2022-11-10T00:39:00;70.93;;;29.10;;
22131;SDS011;11232;51.748;19.390;2022-11-10T00:41:26;60.13;;;27.57;;
22131;SDS011;11232;51.748;19.390;2022-11-10T00:43:51;58.33;;;26.37;;
22131;SDS011;11232;51.748;19.390;2022-11-10T00:46:17;63.43;;;26.53;;
22131;SDS011;11232;51.748;19.390;2022-11-10T00:48:42;63.17;;;27.10;;
22131;SDS011;11232;51.748;19.390;2022-11-10T00:51:09;58.17;;;25.63;;
22131;SDS011;11232;51.748;19.390;2022-11-10T00:53:45;61.50;;;26.90;;
22131;SDS011;11232;51.748;19.390;2022-11-10T00:56:11;66.87;;;27.57;;
22131;SDS011;11232;51.748;19.390;2022-11-10T00:58:36;61.90;;;27.03;;
22131;SDS011;11232;51.748;19.390;2022-11-10T01:01:02;59.30;;;26.43;;
22131;SDS011;11232;51.748;19.390;2022-11-10T01:03:29;63.50;;;28.30;;
22131;SDS011;11232;51.748;19.390;2022-11-10T01:05:54;58.70;;;27.00;;
22131;SDS011;11232;51.748;19.390;2022-11-10T01:08:20;66.33;;;27.73;;
22131;SDS011;11232;51.748;19.390;2022-11-10T01:10:45;63.77;;;27.07;;
22131;SDS011;11232;51.748;19.390;2022-11-10T01:13:11;62.73;;;27.63;;
22131;SDS011;11232;51.748;19.390;2022-11-10T01:15:40;63.57;;;26.77;;
22131;SDS011;11232;51.748;19.390;2022-11-10T01:18:06;58.83;;;27.63;;
22131;SDS011;11232;51.748;19.390;2022-11-10T01:20:32;57.83;;;26.00;;
22131;SDS011;11232;51.748;19.390;2022-11-10T01:22:58;62.37;;;27.07;;
22131;SDS011;11232;51.748;19.390;2022-11-10T01:25:24;60.73;;;27.50;;
22131;SDS011;11232;51.748;19.390;2022-11-10T01:27:50;60.53;;;28.63;;
22131;SDS011;11232;51.748;19.390;2022-11-10T01:30:16;65.53;;;28.53;;
22131;SDS011;11232;51.748;19.390;2022-11-10T01:32:42;62.37;;;27.27;;
22131;SDS011;11232;51.748;19.390;2022-11-10T01:35:08;62.87;;;26.53;;
22131;SDS011;11232;51.748;19.390;2022-11-10T01:37:34;63.40;;;27.13;;
22131;SDS011;11232;51.748;19.390;2022-11-10T01:40:00;62.50;;;28.03;;
22131;SDS011;11232;51.748;19.390;2022-11-10T01:42:27;60.90;;;27.83;;
22131;SDS011;11232;51.748;19.390;2022-11-10T01:47:52;63.07;;;27.00;;
22131;SDS011;11232;51.748;19.390;2022-11-10T01:50:22;67.97;;;29.43;;
22131;SDS011;11232;51.748;19.390;2022-11-10T01:52:52;61.97;;;27.27;;
22131;SDS011;11232;51.748;19.390;2022-11-10T01:55:20;67.13;;;28.77;;
22131;SDS011;11232;51.748;19.390;2022-11-10T01:57:47;65.30;;;28.67;;
22131;SDS011;11232;51.748;19.390;2022-11-10T02:00:13;65.63;;;27.90;;
22131;SDS011;11232;51.748;19.390;2022-11-10T02:02:46;60.17;;;26.13;;
22131;SDS011;11232;51.748;19.390;2022-11-10T02:05:16;66.73;;;27.43;;
22131;SDS011;11232;51.748;19.390;2022-11-10T02:07:42;59.13;;;25.73;;
22131;SDS011;11232;51.748;19.390;2022-11-10T02:10:13;61.00;;;28.20;;
22131;SDS011;11232;51.748;19.390;2022-11-10T02:12:40;61.33;;;28.37;;
22131;SDS011;11232;51.748;19.390;2022-11-10T02:15:06;67.97;;;26.77;;
22131;SDS011;11232;51.748;19.390;2022-11-10T02:17:35;62.33;;;27.33;;
22131;SDS011;11232;51.748;19.390;2022-11-10T02:20:03;55.63;;;26.27;;
22131;SDS011;11232;51.748;19.390;2022-11-10T02:22:34;61.20;;;26.67;;
22131;SDS011;11232;51.748;19.390;2022-11-10T02:25:00;59.10;;;26.07;;
22131;SDS011;11232;51.748;19.390;2022-11-10T02:27:26;59.13;;;24.63;;
22131;SDS011;11232;51.748;19.390;2022-11-10T02:29:52;56.60;;;26.47;;
22131;SDS011;11232;51.748;19.390;2022-11-10T02:32:18;62.23;;;26.70;;
22131;SDS011;11232;51.748;19.390;2022-11-10T02:34:44;60.43;;;23.50;;
22131;SDS011;11232;51.748;19.390;2022-11-10T02:37:09;59.83;;;25.40;;
22131;SDS011;11232;51.748;19.390;2022-11-10T02:39:36;55.93;;;26.43;;
22131;SDS011;11232;51.748;19.390;2022-11-10T02:42:02;60.67;;;26.13;;
22131;SDS011;11232;51.748;19.390;2022-11-10T02:44:28;66.40;;;26.73;;
22131;SDS011;11232;51.748;19.390;2022-11-10T02:46:54;64.40;;;26.80;;
22131;SDS011;11232;51.748;19.390;2022-11-10T02:49:20;64.17;;;27.07;;
22131;SDS011;11232;51.748;19.390;2022-11-10T02:51:45;64.97;;;25.87;;
22131;SDS011;11232;51.748;19.390;2022-11-10T02:54:11;64.60;;;26.23;;
22131;SDS011;11232;51.748;19.390;2022-11-10T02:56:36;60.67;;;26.17;;
22131;SDS011;11232;51.748;19.390;2022-11-10T02:59:02;60.97;;;26.07;;
22131;SDS011;11232;51.748;19.390;2022-11-10T03:01:28;65.83;;;26.33;;
22131;SDS011;11232;51.748;19.390;2022-11-10T03:03:54;60.53;;;26.00;;
22131;SDS011;11232;51.748;19.390;2022-11-10T03:06:19;61.60;;;26.53;;
22131;SDS011;11232;51.748;19.390;2022-11-10T03:08:45;61.97;;;27.43;;
22131;SDS011;11232;51.748;19.390;2022-11-10T03:11:11;55.87;;;25.20;;
22131;SDS011;11232;51.748;19.390;2022-11-10T03:13:36;53.10;;;25.10;;
22131;SDS011;11232;51.748;19.390;2022-11-10T03:16:02;56.47;;;25.83;;
22131;SDS011;11232;51.748;19.390;2022-11-10T03:18:27;57.33;;;24.97;;
22131;SDS011;11232;51.748;19.390;2022-11-10T03:20:53;54.33;;;24.40;;
22131;SDS011;11232;51.748;19.390;2022-11-10T03:23:18;56.73;;;24.73;;
22131;SDS011;11232;51.748;19.390;2022-11-10T03:25:44;59.87;;;25.90;;
22131;SDS011;11232;51.748;19.390;2022-11-10T03:28:10;57.60;;;25.60;;
22131;SDS011;11232;51.748;19.390;2022-11-10T03:30:37;57.70;;;24.77;;
22131;SDS011;11232;51.748;19.390;2022-11-10T03:33:03;55.73;;;24.70;;
22131;SDS011;11232;51.748;19.390;2022-11-10T03:35:28;56.90;;;26.03;;
22131;SDS011;11232;51.748;19.390;2022-11-10T03:37:54;58.00;;;25.33;;
22131;SDS011;11232;51.748;19.390;2022-11-10T03:40:20;55.63;;;25.07;;
22131;SDS011;11232;51.748;19.390;2022-11-10T03:42:45;59.77;;;25.10;;
22131;SDS011;11232;51.748;19.390;2022-11-10T03:45:11;58.00;;;25.53;;
22131;SDS011;11232;51.748;19.390;2022-11-10T03:47:39;58.03;;;24.97;;
22131;SDS011;11232;51.748;19.390;2022-11-10T03:50:05;57.23;;;26.10;;
22131;SDS011;11232;51.748;19.390;2022-11-10T03:52:31;60.63;;;26.33;;
22131;SDS011;11232;51.748;19.390;2022-11-10T03:54:57;61.80;;;25.97;;
22131;SDS011;11232;51.748;19.390;2022-11-10T03:57:23;58.17;;;25.40;;
22131;SDS011;11232;51.748;19.390;2022-11-10T03:59:48;58.80;;;25.33;;
22131;SDS011;11232;51.748;19.390;2022-11-10T04:02:14;60.97;;;25.67;;
22131;SDS011;11232;51.748;19.390;2022-11-10T04:04:39;61.57;;;26.43;;
22131;SDS011;11232;51.748;19.390;2022-11-10T04:07:24;60.67;;;25.93;;
22131;SDS011;11232;51.748;19.390;2022-11-10T04:10:08;64.33;;;26.40;;
22131;SDS011;11232;51.748;19.390;2022-11-10T04:12:34;72.33;;;29.17;;
22131;SDS011;11232;51.748;19.390;2022-11-10T04:15:18;68.90;;;29.53;;
22131;SDS011;11232;51.748;19.390;2022-11-10T04:18:02;67.87;;;27.90;;
22131;SDS011;11232;51.748;19.390;2022-11-10T04:20:47;74.73;;;29.20;;
22131;SDS011;11232;51.748;19.390;2022-11-10T04:23:13;71.07;;;28.00;;
22131;SDS011;11232;51.748;19.390;2022-11-10T04:26:12;65.17;;;28.30;;
22131;SDS011;11232;51.748;19.390;2022-11-10T04:28:57;70.53;;;28.03;;
22131;SDS011;11232;51.748;19.390;2022-11-10T04:31:25;73.37;;;28.10;;
22131;SDS011;11232;51.748;19.390;2022-11-10T04:33:52;63.03;;;27.93;;
22131;SDS011;11232;51.748;19.390;2022-11-10T04:36:20;64.93;;;29.63;;
22131;SDS011;11232;51.748;19.390;2022-11-10T04:38:47;78.93;;;30.43;;
22131;SDS011;11232;51.748;19.390;2022-11-10T04:41:13;69.43;;;29.70;;
22131;SDS011;11232;51.748;19.390;2022-11-10T04:43:40;75.53;;;29.53;;
22131;SDS011;11232;51.748;19.390;2022-11-10T04:46:06;81.67;;;30.67;;
22131;SDS011;11232;51.748;19.390;2022-11-10T04:48:41;81.40;;;29.90;;
22131;SDS011;11232;51.748;19.390;2022-11-10T04:51:07;77.43;;;28.27;;
22131;SDS011;11232;51.748;19.390;2022-11-10T04:53:33;74.10;;;29.10;;
22131;SDS011;11232;51.748;19.390;2022-11-10T04:55:59;78.63;;;29.97;;
22131;SDS011;11232;51.748;19.390;2022-11-10T04:58:24;86.27;;;32.20;;
22131;SDS011;11232;51.748;19.390;2022-11-10T05:00:50;85.63;;;32.40;;
22131;SDS011;11232;51.748;19.390;2022-11-10T05:03:16;84.93;;;30.93;;
22131;SDS011;11232;51.748;19.390;2022-11-10T05:05:41;85.47;;;31.47;;
22131;SDS011;11232;51.748;19.390;2022-11-10T05:08:07;90.13;;;32.30;;
22131;SDS011;11232;51.748;19.390;2022-11-10T05:10:33;85.63;;;31.27;;
22131;SDS011;11232;51.748;19.390;2022-11-10T05:13:00;86.37;;;31.63;;
22131;SDS011;11232;51.748;19.390;2022-11-10T05:15:27;82.30;;;30.80;;
22131;SDS011;11232;51.748;19.390;2022-11-10T05:17:53;85.10;;;31.87;;
22131;SDS011;11232;51.748;19.390;2022-11-10T05:20:19;90.53;;;31.43;;
22131;SDS011;11232;51.748;19.390;2022-11-10T05:22:46;75.10;;;30.43;;
22131;SDS011;11232;51.748;19.390;2022-11-10T05:25:33;84.40;;;31.10;;
22131;SDS011;11232;51.748;19.390;2022-11-10T05:28:01;84.53;;;31.47;;
22131;SDS011;11232;51.748;19.390;2022-11-10T05:30:27;91.10;;;33.03;;
22131;SDS011;11232;51.748;19.390;2022-11-10T05:32:53;80.57;;;31.20;;
22131;SDS011;11232;51.748;19.390;2022-11-10T05:35:19;81.63;;;31.00;;
22131;SDS011;11232;51.748;19.390;2022-11-10T05:37:45;85.03;;;32.60;;
22131;SDS011;11232;51.748;19.390;2022-11-10T05:40:11;90.57;;;32.47;;
22131;SDS011;11232;51.748;19.390;2022-11-10T05:42:47;81.27;;;31.80;;
22131;SDS011;11232;51.748;19.390;2022-11-10T05:45:18;95.97;;;33.97;;
22131;SDS011;11232;51.748;19.390;2022-11-10T05:47:48;93.87;;;32.87;;
22131;SDS011;11232;51.748;19.390;2022-11-10T05:50:15;96.60;;;33.40;;
22131;SDS011;11232;51.748;19.390;2022-11-10T05:52:42;95.40;;;33.90;;
22131;SDS011;11232;51.748;19.390;2022-11-10T05:55:09;93.87;;;34.70;;
22131;SDS011;11232;51.748;19.390;2022-11-10T05:57:36;86.57;;;32.87;;
22131;SDS011;11232;51.748;19.390;2022-11-10T06:00:05;88.37;;;32.27;;
22131;SDS011;11232;51.748;19.390;2022-11-10T06:02:31;87.10;;;31.83;;
22131;SDS011;11232;51.748;19.390;2022-11-10T06:04:56;89.57;;;33.00;;
22131;SDS011;11232;51.748;19.390;2022-11-10T06:07:22;86.77;;;33.67;;
22131;SDS011;11232;51.748;19.390;2022-11-10T06:09:47;99.10;;;32.43;;
22131;SDS011;11232;51.748;19.390;2022-11-10T06:12:13;88.10;;;32.40;;
22131;SDS011;11232;51.748;19.390;2022-11-10T06:14:39;82.60;;;33.03;;
22131;SDS011;11232;51.748;19.390;2022-11-10T06:17:05;87.93;;;32.73;;
22131;SDS011;11232;51.748;19.390;2022-11-10T06:19:31;83.23;;;31.67;;
22131;SDS011;11232;51.748;19.390;2022-11-10T06:21:56;84.40;;;32.10;;
22131;SDS011;11232;51.748;19.390;2022-11-10T06:24:22;81.27;;;31.40;;
22131;SDS011;11232;51.748;19.390;2022-11-10T06:26:47;82.53;;;29.90;;
22131;SDS011;11232;51.748;19.390;2022-11-10T06:29:13;81.23;;;30.10;;
22131;SDS011;11232;51.748;19.390;2022-11-10T06:31:39;79.10;;;30.63;;
22131;SDS011;11232;51.748;19.390;2022-11-10T06:34:04;79.83;;;31.10;;
22131;SDS011;11232;51.748;19.390;2022-11-10T06:36:30;87.53;;;31.63;;
22131;SDS011;11232;51.748;19.390;2022-11-10T06:38:55;80.60;;;31.33;;
22131;SDS011;11232;51.748;19.390;2022-11-10T06:41:21;92.13;;;31.43;;
22131;SDS011;11232;51.748;19.390;2022-11-10T06:43:46;86.67;;;32.50;;
22131;SDS011;11232;51.748;19.390;2022-11-10T06:46:12;83.33;;;31.47;;
22131;SDS011;11232;51.748;19.390;2022-11-10T06:48:38;88.70;;;32.50;;
22131;SDS011;11232;51.748;19.390;2022-11-10T06:51:04;90.17;;;32.27;;
22131;SDS011;11232;51.748;19.390;2022-11-10T06:53:29;93.77;;;33.70;;
22131;SDS011;11232;51.748;19.390;2022-11-10T06:55:55;78.27;;;31.27;;
22131;SDS011;11232;51.748;19.390;2022-11-10T06:58:21;90.47;;;30.77;;
22131;SDS011;11232;51.748;19.390;2022-11-10T07:00:47;89.97;;;31.73;;
22131;SDS011;11232;51.748;19.390;2022-11-10T07:03:13;82.23;;;30.17;;
22131;SDS011;11232;51.748;19.390;2022-11-10T07:05:39;84.47;;;31.13;;
22131;SDS011;11232;51.748;19.390;2022-11-10T07:08:06;83.97;;;29.43;;
22131;SDS011;11232;51.748;19.390;2022-11-10T07:10:43;80.13;;;29.73;;
22131;SDS011;11232;51.748;19.390;2022-11-10T07:13:14;81.33;;;30.07;;
22131;SDS011;11232;51.748;19.390;2022-11-10T07:15:40;82.00;;;28.63;;
22131;SDS011;11232;51.748;19.390;2022-11-10T07:18:06;79.30;;;29.43;;
22131;SDS011;11232;51.748;19.390;2022-11-10T07:20:31;84.13;;;28.73;;
22131;SDS011;11232;51.748;19.390;2022-11-10T07:22:59;75.80;;;28.57;;
22131;SDS011;11232;51.748;19.390;2022-11-10T07:25:27;67.57;;;27.73;;
22131;SDS011;11232;51.748;19.390;2022-11-10T07:27:56;76.63;;;28.07;;
22131;SDS011;11232;51.748;19.390;2022-11-10T07:30:24;73.53;;;26.50;;
22131;SDS011;11232;51.748;19.390;2022-11-10T07:33:00;66.93;;;27.03;;
22131;SDS011;11232;51.748;19.390;2022-11-10T07:35:31;65.60;;;25.43;;
22131;SDS011;11232;51.748;19.390;2022-11-10T07:38:00;55.67;;;24.40;;
22131;SDS011;11232;51.748;19.390;2022-11-10T07:40:28;56.83;;;24.37;;
22131;SDS011;11232;51.748;19.390;2022-11-10T07:42:54;63.10;;;25.13;;
22131;SDS011;11232;51.748;19.390;2022-11-10T07:45:19;61.47;;;25.20;;
22131;SDS011;11232;51.748;19.390;2022-11-10T07:47:45;60.63;;;24.97;;
22131;SDS011;11232;51.748;19.390;2022-11-10T07:50:10;57.43;;;24.07;;
22131;SDS011;11232;51.748;19.390;2022-11-10T07:52:37;53.93;;;23.13;;
22131;SDS011;11232;51.748;19.390;2022-11-10T07:55:03;51.57;;;23.30;;
22131;SDS011;11232;51.748;19.390;2022-11-10T07:57:31;55.37;;;23.67;;
22131;SDS011;11232;51.748;19.390;2022-11-10T07:59:57;50.50;;;22.87;;
22131;SDS011;11232;51.748;19.390;2022-11-10T08:02:22;54.77;;;22.67;;
22131;SDS011;11232;51.748;19.390;2022-11-10T08:04:48;51.43;;;23.53;;
22131;SDS011;11232;51.748;19.390;2022-11-10T08:07:14;53.57;;;23.93;;
22131;SDS011;11232;51.748;19.390;2022-11-10T08:09:39;48.40;;;22.60;;
22131;SDS011;11232;51.748;19.390;2022-11-10T08:12:05;51.40;;;22.50;;
22131;SDS011;11232;51.748;19.390;2022-11-10T08:14:30;48.63;;;22.37;;
22131;SDS011;11232;51.748;19.390;2022-11-10T08:16:56;46.93;;;22.73;;
22131;SDS011;11232;51.748;19.390;2022-11-10T08:19:21;46.33;;;21.10;;
22131;SDS011;11232;51.748;19.390;2022-11-10T08:21:47;46.80;;;22.03;;
22131;SDS011;11232;51.748;19.390;2022-11-10T08:24:13;46.57;;;21.93;;
22131;SDS011;11232;51.748;19.390;2022-11-10T08:26:38;49.30;;;21.00;;
22131;SDS011;11232;51.748;19.390;2022-11-10T08:29:04;45.40;;;22.57;;
22131;SDS011;11232;51.748;19.390;2022-11-10T08:31:31;42.67;;;20.47;;
22131;SDS011;11232;51.748;19.390;2022-11-10T08:33:57;42.53;;;21.10;;
22131;SDS011;11232;51.748;19.390;2022-11-10T08:36:22;44.00;;;21.23;;
22131;SDS011;11232;51.748;19.390;2022-11-10T08:38:48;44.83;;;21.07;;
22131;SDS011;11232;51.748;19.390;2022-11-10T08:41:14;42.47;;;20.10;;
22131;SDS011;11232;51.748;19.390;2022-11-10T08:43:40;43.60;;;20.00;;
22131;SDS011;11232;51.748;19.390;2022-11-10T08:46:05;43.20;;;20.27;;
22131;SDS011;11232;51.748;19.390;2022-11-10T08:48:31;41.07;;;19.73;;
22131;SDS011;11232;51.748;19.390;2022-11-10T08:50:58;49.73;;;20.67;;
22131;SDS011;11232;51.748;19.390;2022-11-10T08:53:24;42.67;;;19.90;;
22131;SDS011;11232;51.748;19.390;2022-11-10T08:55:50;44.10;;;21.13;;
22131;SDS011;11232;51.748;19.390;2022-11-10T08:58:18;39.37;;;19.97;;
22131;SDS011;11232;51.748;19.390;2022-11-10T09:00:45;39.10;;;19.13;;
22131;SDS011;11232;51.748;19.390;2022-11-10T09:03:12;33.10;;;18.40;;
